American Progress — WDI4961 — position and weather

sailwx.info

Track history (hours):
 
Tides and Currents Weather Stations Pressure Air Temp Water Temp Dewpoint Dewpoint Depression Visibility Wind Speed Wind Dir Waves Ship Positions

American Progress

Owner: American Commercial Lines LLC, Jeffersonville, IN. More information available from US FCC via Universal Licensing System and Coast Guard Vessel Documentation Center.

Last reported at 2017-Sep-21 11:55 UTC. Time now 2017-Sep-21 12:31 UTC.
Position N 29°46' W 095°05'.

Length 23 m; draft 3.7 m.

Type: Towing. MMSI: 367703790.

Date/timePositionNaut miles runAvg speedWind from/ knotsBaromVisibWave heightAir tempDewpointWater temp
2017-Sep-21 11:55N 29°46' W 095°05'0 0.0
2017-Sep-21 11:30N 29°46' W 095°05'0 0.0
2017-Sep-21 11:00N 29°46' W 095°05'0 0.0
2017-Sep-21 10:30N 29°46' W 095°05'0 0.0
2017-Sep-21 10:00N 29°46' W 095°05'0 0.0
2017-Sep-21 09:30N 29°46' W 095°05'0 0.0
2017-Sep-21 09:00N 29°46' W 095°05'0 0.0
2017-Sep-21 08:30N 29°46' W 095°05'0 0.0
2017-Sep-21 08:00N 29°46' W 095°05'0 0.0
2017-Sep-21 07:30N 29°46' W 095°05'0 0.0
2017-Sep-21 06:59N 29°46' W 095°05'0 0.0
2017-Sep-21 06:30N 29°46' W 095°05'0 0.0
2017-Sep-21 06:00N 29°46' W 095°05'0 0.0
2017-Sep-21 05:30N 29°46' W 095°05'0 0.0
2017-Sep-21 05:00N 29°46' W 095°05'0 0.0
2017-Sep-21 04:27N 29°46' W 095°05'0 0.0
2017-Sep-21 04:00N 29°46' W 095°05'0 0.0
2017-Sep-21 03:30N 29°46' W 095°05'0 0.0
2017-Sep-21 03:00N 29°46' W 095°05'0 0.0
2017-Sep-21 02:30N 29°46' W 095°05'0 0.0
2017-Sep-21 02:00N 29°46' W 095°05'0 0.0
2017-Sep-21 01:30N 29°46' W 095°05'0 0.0
2017-Sep-21 01:00N 29°46' W 095°05'0 0.0
2017-Sep-21 00:27N 29°46' W 095°05'0 0.0
2017-Sep-20 23:57N 29°46' W 095°05'0 0.0
2017-Sep-20 23:30N 29°46' W 095°05'0 0.0
2017-Sep-20 22:59N 29°46' W 095°05'0 0.0
2017-Sep-20 22:30N 29°46' W 095°05'0 0.0
2017-Sep-20 22:00N 29°46' W 095°05'0 0.0
2017-Sep-20 21:30N 29°46' W 095°05'0 0.0
2017-Sep-20 21:00N 29°46' W 095°05'0 0.0
2017-Sep-20 20:30N 29°46' W 095°05'0 0.0
2017-Sep-20 20:00N 29°46' W 095°05'0 0.0
2017-Sep-20 19:30N 29°46' W 095°05'0 0.0
2017-Sep-20 18:58N 29°46' W 095°05'1 0.1
2017-Sep-20 12:49N 29°45' W 095°06'1 2.0
2017-Sep-20 12:30N 29°46' W 095°05'0 0.0
2017-Sep-20 12:00N 29°46' W 095°05'1 0.3
2017-Sep-20 09:53N 29°45' W 095°06'1 1.7
2017-Sep-20 09:30N 29°46' W 095°05'0 0.0
2017-Sep-20 09:00N 29°46' W 095°05'0 0.0
2017-Sep-20 08:30N 29°46' W 095°05'0 0.0
2017-Sep-20 08:00N 29°46' W 095°05'0 0.0
2017-Sep-20 07:30N 29°46' W 095°05'0 0.0
2017-Sep-20 07:00N 29°46' W 095°05'0 0.0
2017-Sep-20 06:30N 29°46' W 095°05'0 0.0
2017-Sep-20 06:00N 29°46' W 095°05'0 0.0
2017-Sep-20 05:30N 29°46' W 095°05'0 0.0
2017-Sep-20 05:00N 29°46' W 095°05'0 0.0
2017-Sep-20 04:30N 29°46' W 095°05'0 0.0
2017-Sep-20 03:59N 29°46' W 095°05'0 0.0
2017-Sep-20 03:30N 29°46' W 095°05'0 0.0
2017-Sep-20 03:00N 29°46' W 095°05'0 0.0
2017-Sep-20 02:30N 29°46' W 095°05'0 0.0
2017-Sep-20 02:00N 29°46' W 095°05'0 0.0
2017-Sep-20 01:30N 29°46' W 095°05'0 0.0
2017-Sep-20 01:00N 29°46' W 095°05'0 0.0
2017-Sep-20 00:30N 29°46' W 095°05'0 0.0
2017-Sep-20 00:00N 29°46' W 095°05'0 0.0
2017-Sep-19 23:30N 29°46' W 095°05'0 0.0
2017-Sep-19 23:00N 29°46' W 095°05'0 0.0
2017-Sep-19 22:30N 29°46' W 095°05'0 0.0
2017-Sep-19 18:27N 29°46' W 095°05'0 0.4
2017-Sep-19 18:00N 29°46' W 095°05'0 0.0
2017-Sep-19 17:30N 29°46' W 095°05'0 0.0
2017-Sep-19 17:00N 29°46' W 095°05'0 0.0
2017-Sep-19 16:30N 29°46' W 095°05'0 0.0
2017-Sep-19 16:00N 29°46' W 095°05'0 0.0
2017-Sep-19 15:30N 29°46' W 095°05'0 0.0
2017-Sep-19 15:00N 29°46' W 095°05'0 0.0
2017-Sep-19 14:30N 29°46' W 095°05'1 0.2
2017-Sep-19 06:12N 29°47' W 095°04'1 3.5
2017-Sep-19 05:58N 29°46' W 095°05'2 4.3
2017-Sep-19 05:30N 29°44' W 095°04'2 4.9
2017-Sep-19 05:00N 29°43' W 095°01'2 4.6
2017-Sep-19 04:30N 29°42' W 094°59'3 5.2
2017-Sep-19 04:00N 29°39' W 094°58'3 5.9
2017-Sep-19 03:30N 29°36' W 094°57'3 5.8
2017-Sep-19 03:00N 29°34' W 094°55'5 0.1
2017-Sep-17 06:40N 29°30' W 094°52'1 5.6
2017-Sep-17 06:28N 29°31' W 094°53'3 5.9
2017-Sep-17 06:00N 29°33' W 094°55'3 6.1
2017-Sep-17 05:30N 29°35' W 094°56'3 6.5
2017-Sep-17 05:00N 29°38' W 094°58'4 7.3
2017-Sep-17 04:30N 29°42' W 094°60'3 5.9
2017-Sep-17 03:59N 29°44' W 095°02'3 6.6
2017-Sep-17 03:29N 29°46' W 095°05'0 0.1
2017-Sep-17 03:00N 29°46' W 095°05'0 0.0
2017-Sep-17 02:16N 29°46' W 095°05'0 0.1
2017-Sep-17 02:00N 29°46' W 095°05'0 0.0
2017-Sep-17 01:20N 29°46' W 095°05'0 0.0
2017-Sep-17 01:00N 29°46' W 095°05'0 0.1
2017-Sep-17 00:16N 29°46' W 095°05'0 0.2
2017-Sep-17 00:00N 29°46' W 095°05'0 0.1
2017-Sep-16 23:24N 29°46' W 095°05'0 0.3
2017-Sep-16 23:00N 29°46' W 095°05'0 0.0
2017-Sep-16 15:42N 29°46' W 095°06'0 0.2
2017-Sep-16 15:13N 29°46' W 095°05'0 0.2
2017-Sep-16 14:59N 29°46' W 095°05'1 2.6
2017-Sep-16 14:30N 29°45' W 095°04'3 6.6
2017-Sep-16 14:00N 29°43' W 095°01'3 6.6
2017-Sep-16 13:30N 29°41' W 094°59'4 7.4
2017-Sep-16 13:00N 29°37' W 094°57'4 7.5
2017-Sep-16 12:30N 29°34' W 094°55'23 4.0
2017-Sep-16 06:40N 29°33' W 094°28'1 5.1
2017-Sep-16 06:30N 29°33' W 094°28'5 4.7
2017-Sep-16 05:30N 29°36' W 094°23'3 5.4
2017-Sep-16 05:00N 29°37' W 094°20'16 5.3
2017-Sep-16 01:59N 29°45' W 094°04'3 5.5
2017-Sep-16 01:28N 29°47' W 094°02'  
2017-Sep-13 06:41N 29°29' W 094°52'2 8.2
2017-Sep-13 06:27N 29°31' W 094°53'4 8.3
2017-Sep-13 06:00N 29°34' W 094°55'4 7.9
2017-Sep-13 05:30N 29°37' W 094°58'4 8.4
2017-Sep-13 05:00N 29°41' W 094°59'4 7.6
2017-Sep-13 04:29N 29°44' W 095°02'4 4.0
2017-Sep-13 03:33N 29°47' W 095°04'0 0.0
2017-Sep-13 02:51N 29°47' W 095°04'0 0.0
2017-Sep-13 02:30N 29°47' W 095°04'0 0.0
2017-Sep-13 02:00N 29°47' W 095°04'0 0.0
2017-Sep-13 01:30N 29°47' W 095°04'0 0.0
2017-Sep-13 01:00N 29°47' W 095°04'0 0.0
2017-Sep-13 00:30N 29°47' W 095°04'0 0.0
2017-Sep-13 00:00N 29°47' W 095°04'1 1.7
2017-Sep-12 23:24N 29°47' W 095°05'2 3.0
2017-Sep-12 22:51N 29°45' W 095°06'1 3.8
2017-Sep-12 22:30N 29°46' W 095°05'1 0.9
2017-Sep-12 21:40N 29°46' W 095°05'0 0.1
2017-Sep-12 18:19N 29°46' W 095°06'0 0.0
2017-Sep-12 16:58N 29°46' W 095°06'0 0.0
2017-Sep-12 16:21N 29°46' W 095°06'0 0.0
2017-Sep-12 15:40N 29°46' W 095°06'0 1.0
2017-Sep-12 15:30N 29°46' W 095°05'0 0.0
2017-Sep-12 14:06N 29°46' W 095°05'0 1.8
2017-Sep-12 14:00N 29°46' W 095°06'0 0.0
2017-Sep-12 13:29N 29°46' W 095°06'0 0.0
2017-Sep-12 13:00N 29°46' W 095°06'0 0.0
2017-Sep-12 12:30N 29°46' W 095°06'0 0.0
2017-Sep-12 12:00N 29°46' W 095°06'0 0.0
2017-Sep-12 11:30N 29°46' W 095°06'0 0.0
2017-Sep-12 10:59N 29°46' W 095°06'1 1.1
2017-Sep-12 10:23N 29°46' W 095°06'0 0.4
2017-Sep-12 09:51N 29°46' W 095°06'2 5.1
2017-Sep-12 09:29N 29°45' W 095°04'4 8.0
2017-Sep-12 09:00N 29°43' W 095°01'4 8.4
2017-Sep-12 08:30N 29°39' W 094°58'3 5.6
2017-Sep-12 08:00N 29°37' W 094°60'2 3.2
2017-Sep-12 07:30N 29°37' W 095°01'0 0.1
2017-Sep-12 07:00N 29°36' W 095°01'0 0.0
2017-Sep-12 06:30N 29°37' W 095°01'0 0.0
2017-Sep-12 06:00N 29°37' W 095°01'0 0.0
2017-Sep-12 05:30N 29°37' W 095°01'0 0.0
2017-Sep-12 05:00N 29°37' W 095°01'0 0.0
2017-Sep-12 04:30N 29°37' W 095°01'1 2.2
2017-Sep-12 04:00N 29°37' W 095°00'3 5.7
2017-Sep-12 03:30N 29°39' W 094°58'4 8.9
2017-Sep-12 03:00N 29°43' W 095°01'5 8.6
2017-Sep-12 02:28N 29°46' W 095°05'1 1.1
2017-Sep-12 01:33N 29°46' W 095°06'0 1.0
2017-Sep-12 01:08N 29°45' W 095°06'1 2.7
2017-Sep-12 00:53N 29°46' W 095°06'0 0.9
2017-Sep-12 00:30N 29°46' W 095°06'1 0.5
2017-Sep-11 23:11N 29°46' W 095°06'0 0.0
2017-Sep-11 22:43N 29°46' W 095°06'0 0.0
2017-Sep-11 20:11N 29°46' W 095°06'0 0.0
2017-Sep-11 19:32N 29°46' W 095°06'0 0.0
2017-Sep-11 16:53N 29°46' W 095°06'0 0.0
2017-Sep-11 16:29N 29°46' W 095°06'0 0.0
2017-Sep-11 15:28N 29°46' W 095°06'0 0.0
2017-Sep-11 14:50N 29°46' W 095°06'0 0.0
2017-Sep-11 14:24N 29°46' W 095°06'0 0.0
2017-Sep-11 13:55N 29°46' W 095°06'0 0.0
2017-Sep-11 13:29N 29°46' W 095°06'0 0.0
2017-Sep-11 12:58N 29°46' W 095°06'0 0.0
2017-Sep-11 12:26N 29°46' W 095°06'0 0.0
2017-Sep-11 11:59N 29°46' W 095°06'  
Track history (hours):
 
Tides and Currents Weather Stations Pressure Air Temp Water Temp Dewpoint Dewpoint Depression Visibility Wind Speed Wind Dir Waves Ship Positions

American Progress

Owner: American Commercial Lines LLC, Jeffersonville, IN. More information available from US FCC via Universal Licensing System and Coast Guard Vessel Documentation Center.

Last reported at 2017-Sep-21 11:55 UTC. Time now 2017-Sep-21 12:31 UTC.
Position N 29°46' W 095°05'.

Length 23 m; draft 3.7 m.

Type: Towing. MMSI: 367703790.

Date/timePositionNaut miles runAvg speedWind from/ knotsBaromVisibWave heightAir tempDewpointWater temp
2017-Sep-21 11:55N 29°46' W 095°05'0 0.0
2017-Sep-21 11:30N 29°46' W 095°05'0 0.0
2017-Sep-21 11:00N 29°46' W 095°05'0 0.0
2017-Sep-21 10:30N 29°46' W 095°05'0 0.0
2017-Sep-21 10:00N 29°46' W 095°05'0 0.0
2017-Sep-21 09:30N 29°46' W 095°05'0 0.0
2017-Sep-21 09:00N 29°46' W 095°05'0 0.0
2017-Sep-21 08:30N 29°46' W 095°05'0 0.0
2017-Sep-21 08:00N 29°46' W 095°05'0 0.0
2017-Sep-21 07:30N 29°46' W 095°05'0 0.0
2017-Sep-21 06:59N 29°46' W 095°05'0 0.0
2017-Sep-21 06:30N 29°46' W 095°05'0 0.0
2017-Sep-21 06:00N 29°46' W 095°05'0 0.0
2017-Sep-21 05:30N 29°46' W 095°05'0 0.0
2017-Sep-21 05:00N 29°46' W 095°05'0 0.0
2017-Sep-21 04:27N 29°46' W 095°05'0 0.0
2017-Sep-21 04:00N 29°46' W 095°05'0 0.0
2017-Sep-21 03:30N 29°46' W 095°05'0 0.0
2017-Sep-21 03:00N 29°46' W 095°05'0 0.0
2017-Sep-21 02:30N 29°46' W 095°05'0 0.0
2017-Sep-21 02:00N 29°46' W 095°05'0 0.0
2017-Sep-21 01:30N 29°46' W 095°05'0 0.0
2017-Sep-21 01:00N 29°46' W 095°05'0 0.0
2017-Sep-21 00:27N 29°46' W 095°05'0 0.0
2017-Sep-20 23:57N 29°46' W 095°05'0 0.0
2017-Sep-20 23:30N 29°46' W 095°05'0 0.0
2017-Sep-20 22:59N 29°46' W 095°05'0 0.0
2017-Sep-20 22:30N 29°46' W 095°05'0 0.0
2017-Sep-20 22:00N 29°46' W 095°05'0 0.0
2017-Sep-20 21:30N 29°46' W 095°05'0 0.0
2017-Sep-20 21:00N 29°46' W 095°05'0 0.0
2017-Sep-20 20:30N 29°46' W 095°05'0 0.0
2017-Sep-20 20:00N 29°46' W 095°05'0 0.0
2017-Sep-20 19:30N 29°46' W 095°05'0 0.0
2017-Sep-20 18:58N 29°46' W 095°05'1 0.1
2017-Sep-20 12:49N 29°45' W 095°06'1 2.0
2017-Sep-20 12:30N 29°46' W 095°05'0 0.0
2017-Sep-20 12:00N 29°46' W 095°05'1 0.3
2017-Sep-20 09:53N 29°45' W 095°06'1 1.7
2017-Sep-20 09:30N 29°46' W 095°05'0 0.0
2017-Sep-20 09:00N 29°46' W 095°05'0 0.0
2017-Sep-20 08:30N 29°46' W 095°05'0 0.0
2017-Sep-20 08:00N 29°46' W 095°05'0 0.0
2017-Sep-20 07:30N 29°46' W 095°05'0 0.0
2017-Sep-20 07:00N 29°46' W 095°05'0 0.0
2017-Sep-20 06:30N 29°46' W 095°05'0 0.0
2017-Sep-20 06:00N 29°46' W 095°05'0 0.0
2017-Sep-20 05:30N 29°46' W 095°05'0 0.0
2017-Sep-20 05:00N 29°46' W 095°05'0 0.0
2017-Sep-20 04:30N 29°46' W 095°05'0 0.0
2017-Sep-20 03:59N 29°46' W 095°05'0 0.0
2017-Sep-20 03:30N 29°46' W 095°05'0 0.0
2017-Sep-20 03:00N 29°46' W 095°05'0 0.0
2017-Sep-20 02:30N 29°46' W 095°05'0 0.0
2017-Sep-20 02:00N 29°46' W 095°05'0 0.0
2017-Sep-20 01:30N 29°46' W 095°05'0 0.0
2017-Sep-20 01:00N 29°46' W 095°05'0 0.0
2017-Sep-20 00:30N 29°46' W 095°05'0 0.0
2017-Sep-20 00:00N 29°46' W 095°05'0 0.0
2017-Sep-19 23:30N 29°46' W 095°05'0 0.0
2017-Sep-19 23:00N 29°46' W 095°05'0 0.0
2017-Sep-19 22:30N 29°46' W 095°05'0 0.0
2017-Sep-19 18:27N 29°46' W 095°05'0 0.4
2017-Sep-19 18:00N 29°46' W 095°05'0 0.0
2017-Sep-19 17:30N 29°46' W 095°05'0 0.0
2017-Sep-19 17:00N 29°46' W 095°05'0 0.0
2017-Sep-19 16:30N 29°46' W 095°05'0 0.0
2017-Sep-19 16:00N 29°46' W 095°05'0 0.0
2017-Sep-19 15:30N 29°46' W 095°05'0 0.0
2017-Sep-19 15:00N 29°46' W 095°05'0 0.0
2017-Sep-19 14:30N 29°46' W 095°05'1 0.2
2017-Sep-19 06:12N 29°47' W 095°04'1 3.5
2017-Sep-19 05:58N 29°46' W 095°05'2 4.3
2017-Sep-19 05:30N 29°44' W 095°04'2 4.9
2017-Sep-19 05:00N 29°43' W 095°01'2 4.6
2017-Sep-19 04:30N 29°42' W 094°59'3 5.2
2017-Sep-19 04:00N 29°39' W 094°58'3 5.9
2017-Sep-19 03:30N 29°36' W 094°57'3 5.8
2017-Sep-19 03:00N 29°34' W 094°55'5 0.1
2017-Sep-17 06:40N 29°30' W 094°52'1 5.6
2017-Sep-17 06:28N 29°31' W 094°53'3 5.9
2017-Sep-17 06:00N 29°33' W 094°55'3 6.1
2017-Sep-17 05:30N 29°35' W 094°56'3 6.5
2017-Sep-17 05:00N 29°38' W 094°58'4 7.3
2017-Sep-17 04:30N 29°42' W 094°60'3 5.9
2017-Sep-17 03:59N 29°44' W 095°02'3 6.6
2017-Sep-17 03:29N 29°46' W 095°05'0 0.1
2017-Sep-17 03:00N 29°46' W 095°05'0 0.0
2017-Sep-17 02:16N 29°46' W 095°05'0 0.1
2017-Sep-17 02:00N 29°46' W 095°05'0 0.0
2017-Sep-17 01:20N 29°46' W 095°05'0 0.0
2017-Sep-17 01:00N 29°46' W 095°05'0 0.1
2017-Sep-17 00:16N 29°46' W 095°05'0 0.2
2017-Sep-17 00:00N 29°46' W 095°05'0 0.1
2017-Sep-16 23:24N 29°46' W 095°05'0 0.3
2017-Sep-16 23:00N 29°46' W 095°05'0 0.0
2017-Sep-16 15:42N 29°46' W 095°06'0 0.2
2017-Sep-16 15:13N 29°46' W 095°05'0 0.2
2017-Sep-16 14:59N 29°46' W 095°05'1 2.6
2017-Sep-16 14:30N 29°45' W 095°04'3 6.6
2017-Sep-16 14:00N 29°43' W 095°01'3 6.6
2017-Sep-16 13:30N 29°41' W 094°59'4 7.4
2017-Sep-16 13:00N 29°37' W 094°57'4 7.5
2017-Sep-16 12:30N 29°34' W 094°55'23 4.0
2017-Sep-16 06:40N 29°33' W 094°28'1 5.1
2017-Sep-16 06:30N 29°33' W 094°28'5 4.7
2017-Sep-16 05:30N 29°36' W 094°23'3 5.4
2017-Sep-16 05:00N 29°37' W 094°20'16 5.3
2017-Sep-16 01:59N 29°45' W 094°04'3 5.5
2017-Sep-16 01:28N 29°47' W 094°02'  
2017-Sep-13 06:41N 29°29' W 094°52'2 8.2
2017-Sep-13 06:27N 29°31' W 094°53'4 8.3
2017-Sep-13 06:00N 29°34' W 094°55'4 7.9
2017-Sep-13 05:30N 29°37' W 094°58'4 8.4
2017-Sep-13 05:00N 29°41' W 094°59'4 7.6
2017-Sep-13 04:29N 29°44' W 095°02'4 4.0
2017-Sep-13 03:33N 29°47' W 095°04'0 0.0
2017-Sep-13 02:51N 29°47' W 095°04'0 0.0
2017-Sep-13 02:30N 29°47' W 095°04'0 0.0
2017-Sep-13 02:00N 29°47' W 095°04'0 0.0
2017-Sep-13 01:30N 29°47' W 095°04'0 0.0
2017-Sep-13 01:00N 29°47' W 095°04'0 0.0
2017-Sep-13 00:30N 29°47' W 095°04'0 0.0
2017-Sep-13 00:00N 29°47' W 095°04'1 1.7
2017-Sep-12 23:24N 29°47' W 095°05'2 3.0
2017-Sep-12 22:51N 29°45' W 095°06'1 3.8
2017-Sep-12 22:30N 29°46' W 095°05'1 0.9
2017-Sep-12 21:40N 29°46' W 095°05'0 0.1
2017-Sep-12 18:19N 29°46' W 095°06'0 0.0
2017-Sep-12 16:58N 29°46' W 095°06'0 0.0
2017-Sep-12 16:21N 29°46' W 095°06'0 0.0
2017-Sep-12 15:40N 29°46' W 095°06'0 1.0
2017-Sep-12 15:30N 29°46' W 095°05'0 0.0
2017-Sep-12 14:06N 29°46' W 095°05'0 1.8
2017-Sep-12 14:00N 29°46' W 095°06'0 0.0
2017-Sep-12 13:29N 29°46' W 095°06'0 0.0
2017-Sep-12 13:00N 29°46' W 095°06'0 0.0
2017-Sep-12 12:30N 29°46' W 095°06'0 0.0
2017-Sep-12 12:00N 29°46' W 095°06'0 0.0
2017-Sep-12 11:30N 29°46' W 095°06'0 0.0
2017-Sep-12 10:59N 29°46' W 095°06'1 1.1
2017-Sep-12 10:23N 29°46' W 095°06'0 0.4
2017-Sep-12 09:51N 29°46' W 095°06'2 5.1
2017-Sep-12 09:29N 29°45' W 095°04'4 8.0
2017-Sep-12 09:00N 29°43' W 095°01'4 8.4
2017-Sep-12 08:30N 29°39' W 094°58'3 5.6
2017-Sep-12 08:00N 29°37' W 094°60'2 3.2
2017-Sep-12 07:30N 29°37' W 095°01'0 0.1
2017-Sep-12 07:00N 29°36' W 095°01'0 0.0
2017-Sep-12 06:30N 29°37' W 095°01'0 0.0
2017-Sep-12 06:00N 29°37' W 095°01'0 0.0
2017-Sep-12 05:30N 29°37' W 095°01'0 0.0
2017-Sep-12 05:00N 29°37' W 095°01'0 0.0
2017-Sep-12 04:30N 29°37' W 095°01'1 2.2
2017-Sep-12 04:00N 29°37' W 095°00'3 5.7
2017-Sep-12 03:30N 29°39' W 094°58'4 8.9
2017-Sep-12 03:00N 29°43' W 095°01'5 8.6
2017-Sep-12 02:28N 29°46' W 095°05'1 1.1
2017-Sep-12 01:33N 29°46' W 095°06'0 1.0
2017-Sep-12 01:08N 29°45' W 095°06'1 2.7
2017-Sep-12 00:53N 29°46' W 095°06'0 0.9
2017-Sep-12 00:30N 29°46' W 095°06'1 0.5
2017-Sep-11 23:11N 29°46' W 095°06'0 0.0
2017-Sep-11 22:43N 29°46' W 095°06'0 0.0
2017-Sep-11 20:11N 29°46' W 095°06'0 0.0
2017-Sep-11 19:32N 29°46' W 095°06'0 0.0
2017-Sep-11 16:53N 29°46' W 095°06'0 0.0
2017-Sep-11 16:29N 29°46' W 095°06'0 0.0
2017-Sep-11 15:28N 29°46' W 095°06'0 0.0
2017-Sep-11 14:50N 29°46' W 095°06'0 0.0
2017-Sep-11 14:24N 29°46' W 095°06'0 0.0
2017-Sep-11 13:55N 29°46' W 095°06'0 0.0
2017-Sep-11 13:29N 29°46' W 095°06'0 0.0
2017-Sep-11 12:58N 29°46' W 095°06'0 0.0
2017-Sep-11 12:26N 29°46' W 095°06'0 0.0
2017-Sep-11 11:59N 29°46' W 095°06'  

Dump ship's entire track history